sensor_id;sensor_type;location;lat;lon;timestamp;pressure;altitude;pressure_sealevel;temperature;humidity
51781;BME280;37844;57.126;24.288;2023-12-07T00:00:49;102774.53;;;-6.28;100.00
51781;BME280;37844;57.126;24.288;2023-12-07T00:03:14;102770.06;;;-6.31;100.00
51781;BME280;37844;57.126;24.288;2023-12-07T00:05:40;102773.03;;;-6.19;100.00
51781;BME280;37844;57.126;24.288;2023-12-07T00:08:09;102774.81;;;-6.18;100.00
51781;BME280;37844;57.126;24.288;2023-12-07T00:10:36;102777.34;;;-6.18;100.00
51781;BME280;37844;57.126;24.288;2023-12-07T00:13:01;102783.72;;;-6.06;100.00
51781;BME280;37844;57.126;24.288;2023-12-07T00:15:27;102786.56;;;-6.03;100.00
51781;BME280;37844;57.126;24.288;2023-12-07T00:17:52;102782.44;;;-5.95;100.00
51781;BME280;37844;57.126;24.288;2023-12-07T00:20:18;102780.88;;;-6.09;100.00
51781;BME280;37844;57.126;24.288;2023-12-07T00:22:43;102787.34;;;-6.11;100.00
51781;BME280;37844;57.126;24.288;2023-12-07T00:25:08;102788.03;;;-6.05;100.00
51781;BME280;37844;57.126;24.288;2023-12-07T00:27:34;102794.84;;;-6.04;100.00
51781;BME280;37844;57.126;24.288;2023-12-07T00:29:59;102789.47;;;-6.07;100.00
51781;BME280;37844;57.126;24.288;2023-12-07T00:32:25;102790.00;;;-6.02;100.00
51781;BME280;37844;57.126;24.288;2023-12-07T00:34:52;102787.00;;;-6.14;100.00
51781;BME280;37844;57.126;24.288;2023-12-07T00:37:17;102802.03;;;-6.07;100.00
51781;BME280;37844;57.126;24.288;2023-12-07T00:39:43;102797.00;;;-6.07;100.00
51781;BME280;37844;57.126;24.288;2023-12-07T00:42:08;102807.06;;;-6.07;100.00
51781;BME280;37844;57.126;24.288;2023-12-07T00:44:39;102812.75;;;-6.01;100.00
51781;BME280;37844;57.126;24.288;2023-12-07T00:47:04;102807.94;;;-6.06;100.00
51781;BME280;37844;57.126;24.288;2023-12-07T00:49:30;102819.41;;;-6.08;100.00
51781;BME280;37844;57.126;24.288;2023-12-07T00:51:55;102812.03;;;-6.00;100.00
51781;BME280;37844;57.126;24.288;2023-12-07T00:54:21;102826.06;;;-6.09;100.00
51781;BME280;37844;57.126;24.288;2023-12-07T00:56:46;102821.59;;;-6.11;100.00
51781;BME280;37844;57.126;24.288;2023-12-07T00:59:12;102813.50;;;-6.09;100.00
51781;BME280;37844;57.126;24.288;2023-12-07T01:01:37;102826.03;;;-6.02;100.00
51781;BME280;37844;57.126;24.288;2023-12-07T01:04:04;102817.97;;;-6.06;100.00
51781;BME280;37844;57.126;24.288;2023-12-07T01:06:30;102828.53;;;-6.02;100.00
51781;BME280;37844;57.126;24.288;2023-12-07T01:08:56;102828.38;;;-6.10;100.00
51781;BME280;37844;57.126;24.288;2023-12-07T01:11:22;102826.66;;;-6.26;100.00
51781;BME280;37844;57.126;24.288;2023-12-07T01:13:47;102824.25;;;-6.10;100.00
51781;BME280;37844;57.126;24.288;2023-12-07T01:16:13;102828.25;;;-6.12;100.00
51781;BME280;37844;57.126;24.288;2023-12-07T01:18:38;102832.84;;;-6.08;100.00
51781;BME280;37844;57.126;24.288;2023-12-07T01:21:03;102832.28;;;-5.98;100.00
51781;BME280;37844;57.126;24.288;2023-12-07T01:23:29;102836.53;;;-5.90;100.00
51781;BME280;37844;57.126;24.288;2023-12-07T01:25:54;102828.78;;;-5.84;100.00
51781;BME280;37844;57.126;24.288;2023-12-07T01:28:20;102824.59;;;-5.77;100.00
51781;BME280;37844;57.126;24.288;2023-12-07T01:30:45;102824.75;;;-5.68;100.00
51781;BME280;37844;57.126;24.288;2023-12-07T01:33:11;102824.38;;;-5.64;100.00
51781;BME280;37844;57.126;24.288;2023-12-07T01:35:36;102827.56;;;-5.58;100.00
51781;BME280;37844;57.126;24.288;2023-12-07T01:38:02;102820.06;;;-5.65;100.00
51781;BME280;37844;57.126;24.288;2023-12-07T01:40:27;102829.63;;;-5.77;100.00
51781;BME280;37844;57.126;24.288;2023-12-07T01:42:53;102827.00;;;-5.85;100.00
51781;BME280;37844;57.126;24.288;2023-12-07T01:45:19;102819.22;;;-5.72;100.00
51781;BME280;37844;57.126;24.288;2023-12-07T01:47:46;102823.91;;;-5.76;100.00
51781;BME280;37844;57.126;24.288;2023-12-07T01:50:12;102824.03;;;-5.67;100.00
51781;BME280;37844;57.126;24.288;2023-12-07T01:52:43;102822.47;;;-5.73;100.00
51781;BME280;37844;57.126;24.288;2023-12-07T01:55:09;102816.19;;;-5.77;100.00
51781;BME280;37844;57.126;24.288;2023-12-07T01:57:36;102822.72;;;-5.93;100.00
51781;BME280;37844;57.126;24.288;2023-12-07T02:00:02;102829.47;;;-5.78;100.00
51781;BME280;37844;57.126;24.288;2023-12-07T02:02:29;102817.63;;;-5.79;100.00
51781;BME280;37844;57.126;24.288;2023-12-07T02:04:55;102816.91;;;-5.78;100.00
51781;BME280;37844;57.126;24.288;2023-12-07T02:07:23;102837.34;;;-5.75;100.00
51781;BME280;37844;57.126;24.288;2023-12-07T02:09:49;102837.34;;;-5.75;100.00
51781;BME280;37844;57.126;24.288;2023-12-07T02:12:15;102839.59;;;-5.92;100.00
51781;BME280;37844;57.126;24.288;2023-12-07T02:14:41;102840.13;;;-5.88;100.00
51781;BME280;37844;57.126;24.288;2023-12-07T02:22:28;102821.78;;;-5.87;100.00
51781;BME280;37844;57.126;24.288;2023-12-07T02:25:05;102831.25;;;-5.77;100.00
51781;BME280;37844;57.126;24.288;2023-12-07T02:27:41;102834.53;;;-5.85;100.00
51781;BME280;37844;57.126;24.288;2023-12-07T02:30:09;102832.22;;;-5.91;100.00
51781;BME280;37844;57.126;24.288;2023-12-07T02:32:39;102839.59;;;-5.92;100.00
51781;BME280;37844;57.126;24.288;2023-12-07T02:35:06;102832.47;;;-5.97;100.00
51781;BME280;37844;57.126;24.288;2023-12-07T02:37:41;102844.84;;;-5.98;100.00
51781;BME280;37844;57.126;24.288;2023-12-07T02:40:08;102824.38;;;-5.94;100.00
51781;BME280;37844;57.126;24.288;2023-12-07T02:42:38;102826.66;;;-5.88;100.00
51781;BME280;37844;57.126;24.288;2023-12-07T02:45:07;102820.28;;;-5.70;100.00
51781;BME280;37844;57.126;24.288;2023-12-07T02:47:33;102833.03;;;-5.69;100.00
51781;BME280;37844;57.126;24.288;2023-12-07T02:49:58;102833.66;;;-5.86;100.00
51781;BME280;37844;57.126;24.288;2023-12-07T02:52:24;102833.75;;;-5.77;100.00
51781;BME280;37844;57.126;24.288;2023-12-07T02:54:50;102844.69;;;-5.69;100.00
51781;BME280;37844;57.126;24.288;2023-12-07T02:57:15;102834.66;;;-5.77;100.00
51781;BME280;37844;57.126;24.288;2023-12-07T02:59:41;102849.22;;;-5.81;100.00
51781;BME280;37844;57.126;24.288;2023-12-07T03:02:06;102844.69;;;-5.77;100.00
51781;BME280;37844;57.126;24.288;2023-12-07T03:04:32;102849.56;;;-5.78;100.00
51781;BME280;37844;57.126;24.288;2023-12-07T03:06:58;102841.34;;;-5.84;100.00
51781;BME280;37844;57.126;24.288;2023-12-07T03:09:23;102849.06;;;-5.83;100.00
51781;BME280;37844;57.126;24.288;2023-12-07T03:11:50;102849.41;;;-5.87;100.00
51781;BME280;37844;57.126;24.288;2023-12-07T03:14:15;102863.13;;;-5.99;100.00
51781;BME280;37844;57.126;24.288;2023-12-07T03:16:41;102852.03;;;-6.01;100.00
51781;BME280;37844;57.126;24.288;2023-12-07T03:19:06;102852.59;;;-6.11;100.00
51781;BME280;37844;57.126;24.288;2023-12-07T03:21:32;102851.84;;;-6.03;100.00
51781;BME280;37844;57.126;24.288;2023-12-07T03:23:57;102854.38;;;-6.10;100.00
51781;BME280;37844;57.126;24.288;2023-12-07T03:26:23;102837.91;;;-6.15;100.00
51781;BME280;37844;57.126;24.288;2023-12-07T03:28:48;102852.94;;;-6.08;100.00
51781;BME280;37844;57.126;24.288;2023-12-07T03:31:14;102843.78;;;-6.00;100.00
51781;BME280;37844;57.126;24.288;2023-12-07T03:33:41;102847.22;;;-6.07;100.00
51781;BME280;37844;57.126;24.288;2023-12-07T03:36:11;102843.69;;;-6.23;100.00
51781;BME280;37844;57.126;24.288;2023-12-07T03:38:36;102841.50;;;-6.20;100.00
51781;BME280;37844;57.126;24.288;2023-12-07T03:41:01;102851.38;;;-6.22;100.00
51781;BME280;37844;57.126;24.288;2023-12-07T03:43:27;102858.91;;;-6.22;100.00
51781;BME280;37844;57.126;24.288;2023-12-07T03:45:53;102842.59;;;-6.18;100.00
51781;BME280;37844;57.126;24.288;2023-12-07T03:48:18;102856.56;;;-6.20;100.00
51781;BME280;37844;57.126;24.288;2023-12-07T03:50:43;102860.91;;;-6.26;100.00
51781;BME280;37844;57.126;24.288;2023-12-07T03:53:09;102854.28;;;-6.26;100.00
51781;BME280;37844;57.126;24.288;2023-12-07T03:55:34;102872.00;;;-6.24;100.00
51781;BME280;37844;57.126;24.288;2023-12-07T03:58:02;102848.16;;;-6.21;100.00
51781;BME280;37844;57.126;24.288;2023-12-07T04:00:27;102853.00;;;-6.29;100.00
51781;BME280;37844;57.126;24.288;2023-12-07T04:02:53;102858.22;;;-6.35;100.00
51781;BME280;37844;57.126;24.288;2023-12-07T04:05:18;102858.03;;;-6.29;100.00
51781;BME280;37844;57.126;24.288;2023-12-07T04:07:43;102864.88;;;-6.43;100.00
51781;BME280;37844;57.126;24.288;2023-12-07T04:10:09;102861.31;;;-6.45;100.00
51781;BME280;37844;57.126;24.288;2023-12-07T04:12:35;102858.22;;;-6.35;100.00
51781;BME280;37844;57.126;24.288;2023-12-07T04:15:00;102864.47;;;-6.31;100.00
51781;BME280;37844;57.126;24.288;2023-12-07T04:17:25;102861.09;;;-6.39;100.00
51781;BME280;37844;57.126;24.288;2023-12-07T04:19:51;102863.47;;;-6.41;100.00
51781;BME280;37844;57.126;24.288;2023-12-07T04:22:16;102862.38;;;-6.35;100.00
51781;BME280;37844;57.126;24.288;2023-12-07T04:24:42;102852.88;;;-6.38;100.00
51781;BME280;37844;57.126;24.288;2023-12-07T04:27:07;102853.75;;;-6.30;100.00
51781;BME280;37844;57.126;24.288;2023-12-07T04:29:32;102864.13;;;-6.34;100.00
51781;BME280;37844;57.126;24.288;2023-12-07T04:31:58;102856.28;;;-6.37;100.00
51781;BME280;37844;57.126;24.288;2023-12-07T04:34:23;102861.84;;;-6.40;100.00
51781;BME280;37844;57.126;24.288;2023-12-07T04:36:49;102865.03;;;-6.34;100.00
51781;BME280;37844;57.126;24.288;2023-12-07T04:39:15;102860.41;;;-6.38;100.00
51781;BME280;37844;57.126;24.288;2023-12-07T04:41:40;102864.69;;;-6.37;100.00
51781;BME280;37844;57.126;24.288;2023-12-07T04:44:06;102869.50;;;-6.31;100.00
51781;BME280;37844;57.126;24.288;2023-12-07T04:46:31;102869.88;;;-6.28;100.00
51781;BME280;37844;57.126;24.288;2023-12-07T04:48:57;102859.31;;;-6.40;100.00
51781;BME280;37844;57.126;24.288;2023-12-07T04:51:22;102864.88;;;-6.43;100.00
51781;BME280;37844;57.126;24.288;2023-12-07T04:53:47;102868.47;;;-6.41;100.00
51781;BME280;37844;57.126;24.288;2023-12-07T04:56:13;102866.13;;;-6.39;100.00
51781;BME280;37844;57.126;24.288;2023-12-07T04:58:38;102872.75;;;-6.40;100.00
51781;BME280;37844;57.126;24.288;2023-12-07T05:01:04;102871.88;;;-6.40;100.00
51781;BME280;37844;57.126;24.288;2023-12-07T05:03:29;102873.13;;;-6.51;100.00
51781;BME280;37844;57.126;24.288;2023-12-07T05:05:55;102858.59;;;-6.46;100.00
51781;BME280;37844;57.126;24.288;2023-12-07T05:08:20;102852.13;;;-6.37;100.00
51781;BME280;37844;57.126;24.288;2023-12-07T05:10:46;102862.38;;;-6.43;100.00
51781;BME280;37844;57.126;24.288;2023-12-07T05:13:11;102868.81;;;-6.37;100.00
51781;BME280;37844;57.126;24.288;2023-12-07T05:15:37;102877.59;;;-6.41;100.00
51781;BME280;37844;57.126;24.288;2023-12-07T05:18:03;102868.09;;;-6.44;100.00
51781;BME280;37844;57.126;24.288;2023-12-07T05:20:28;102884.03;;;-6.43;100.00
51781;BME280;37844;57.126;24.288;2023-12-07T05:22:54;102868.47;;;-6.41;100.00
51781;BME280;37844;57.126;24.288;2023-12-07T05:25:20;102888.16;;;-6.36;100.00
51781;BME280;37844;57.126;24.288;2023-12-07T05:27:45;102879.75;;;-6.44;100.00
51781;BME280;37844;57.126;24.288;2023-12-07T05:30:11;102870.78;;;-6.35;100.00
51781;BME280;37844;57.126;24.288;2023-12-07T05:32:38;102881.03;;;-6.41;100.00
51781;BME280;37844;57.126;24.288;2023-12-07T05:35:04;102876.69;;;-6.42;100.00
51781;BME280;37844;57.126;24.288;2023-12-07T05:37:29;102873.47;;;-6.33;100.00
51781;BME280;37844;57.126;24.288;2023-12-07T05:39:54;102884.94;;;-6.35;100.00
51781;BME280;37844;57.126;24.288;2023-12-07T05:42:20;102870.41;;;-6.31;100.00
51781;BME280;37844;57.126;24.288;2023-12-07T05:44:45;102881.00;;;-6.33;100.00
51781;BME280;37844;57.126;24.288;2023-12-07T05:47:11;102889.03;;;-6.36;100.00
51781;BME280;37844;57.126;24.288;2023-12-07T05:49:36;102891.53;;;-6.29;100.00
51781;BME280;37844;57.126;24.288;2023-12-07T05:52:02;102896.03;;;-6.26;100.00
51781;BME280;37844;57.126;24.288;2023-12-07T05:54:28;102905.16;;;-6.27;100.00
51781;BME280;37844;57.126;24.288;2023-12-07T05:56:53;102906.25;;;-6.25;100.00
51781;BME280;37844;57.126;24.288;2023-12-07T05:59:19;102894.44;;;-6.33;100.00
51781;BME280;37844;57.126;24.288;2023-12-07T06:01:44;102894.78;;;-6.30;100.00
51781;BME280;37844;57.126;24.288;2023-12-07T06:04:09;102894.97;;;-6.28;100.00
51781;BME280;37844;57.126;24.288;2023-12-07T06:06:35;102895.13;;;-6.34;100.00
51781;BME280;37844;57.126;24.288;2023-12-07T06:09:01;102894.81;;;-6.44;100.00
51781;BME280;37844;57.126;24.288;2023-12-07T06:11:27;102898.59;;;-6.41;100.00
51781;BME280;37844;57.126;24.288;2023-12-07T06:13:52;102896.41;;;-6.37;100.00
51781;BME280;37844;57.126;24.288;2023-12-07T06:16:17;102895.13;;;-6.34;100.00
51781;BME280;37844;57.126;24.288;2023-12-07T06:18:44;102896.56;;;-6.29;100.00
51781;BME280;37844;57.126;24.288;2023-12-07T06:21:10;102899.09;;;-6.36;100.00
51781;BME280;37844;57.126;24.288;2023-12-07T06:23:35;102900.16;;;-6.34;100.00
51781;BME280;37844;57.126;24.288;2023-12-07T06:26:02;102912.69;;;-6.27;100.00
51781;BME280;37844;57.126;24.288;2023-12-07T06:28:27;102905.53;;;-6.24;100.00
51781;BME280;37844;57.126;24.288;2023-12-07T06:30:53;102906.97;;;-6.33;100.00
51781;BME280;37844;57.126;24.288;2023-12-07T06:33:18;102886.53;;;-6.29;100.00
51781;BME280;37844;57.126;24.288;2023-12-07T06:35:45;102906.22;;;-6.18;100.00
51781;BME280;37844;57.126;24.288;2023-12-07T06:38:11;102915.91;;;-6.13;100.00
51781;BME280;37844;57.126;24.288;2023-12-07T06:40:37;102904.44;;;-6.11;100.00
51781;BME280;37844;57.126;24.288;2023-12-07T06:43:02;102919.84;;;-6.15;100.00
51781;BME280;37844;57.126;24.288;2023-12-07T06:45:28;102911.97;;;-6.19;100.00
51781;BME280;37844;57.126;24.288;2023-12-07T06:47:53;102912.53;;;-6.21;100.00
51781;BME280;37844;57.126;24.288;2023-12-07T06:50:18;102919.84;;;-6.15;100.00
51781;BME280;37844;57.126;24.288;2023-12-07T06:52:44;102922.72;;;-6.27;100.00
51781;BME280;37844;57.126;24.288;2023-12-07T06:55:10;102920.41;;;-6.18;100.00
51781;BME280;37844;57.126;24.288;2023-12-07T06:57:36;102927.56;;;-6.14;100.00
51781;BME280;37844;57.126;24.288;2023-12-07T07:00:02;102924.31;;;-6.13;100.00
51781;BME280;37844;57.126;24.288;2023-12-07T07:02:31;102920.41;;;-6.25;100.00
51781;BME280;37844;57.126;24.288;2023-12-07T07:04:56;102931.16;;;-6.19;100.00
51781;BME280;37844;57.126;24.288;2023-12-07T07:07:22;102916.09;;;-6.12;100.00
51781;BME280;37844;57.126;24.288;2023-12-07T07:09:47;102912.13;;;-6.17;100.00
51781;BME280;37844;57.126;24.288;2023-12-07T07:12:12;102908.03;;;-6.24;100.00
51781;BME280;37844;57.126;24.288;2023-12-07T07:14:38;102916.81;;;-6.20;100.00
51781;BME280;37844;57.126;24.288;2023-12-07T07:17:04;102911.44;;;-6.16;100.00
51781;BME280;37844;57.126;24.288;2023-12-07T07:19:30;102919.28;;;-6.06;100.00
51781;BME280;37844;57.126;24.288;2023-12-07T07:21:55;102937.22;;;-6.10;100.00
51781;BME280;37844;57.126;24.288;2023-12-07T07:24:21;102938.16;;;-6.16;100.00
51781;BME280;37844;57.126;24.288;2023-12-07T07:26:46;102928.09;;;-6.16;100.00
51781;BME280;37844;57.126;24.288;2023-12-07T07:29:12;102926.31;;;-6.18;100.00
51781;BME280;37844;57.126;24.288;2023-12-07T07:31:38;102928.66;;;-6.19;100.00
51781;BME280;37844;57.126;24.288;2023-12-07T07:34:03;102936.53;;;-6.23;100.00
51781;BME280;37844;57.126;24.288;2023-12-07T07:36:29;102938.84;;;-6.18;100.00
51781;BME280;37844;57.126;24.288;2023-12-07T07:38:55;102929.19;;;-6.14;100.00
51781;BME280;37844;57.126;24.288;2023-12-07T07:41:20;102935.25;;;-6.12;100.00
51781;BME280;37844;57.126;24.288;2023-12-07T07:43:46;102928.66;;;-6.12;100.00
51781;BME280;37844;57.126;24.288;2023-12-07T07:46:11;102931.69;;;-6.07;100.00
51781;BME280;37844;57.126;24.288;2023-12-07T07:48:37;102935.78;;;-6.08;100.00
51781;BME280;37844;57.126;24.288;2023-12-07T07:51:03;102924.16;;;-6.22;100.00
51781;BME280;37844;57.126;24.288;2023-12-07T07:53:28;102935.09;;;-6.07;100.00
51781;BME280;37844;57.126;24.288;2023-12-07T07:55:54;102929.69;;;-5.95;100.00
51781;BME280;37844;57.126;24.288;2023-12-07T07:58:20;102932.38;;;-6.01;100.00
51781;BME280;37844;57.126;24.288;2023-12-07T08:00:45;102937.53;;;-5.92;100.00
51781;BME280;37844;57.126;24.288;2023-12-07T08:03:12;102930.13;;;-5.84;100.00
51781;BME280;37844;57.126;24.288;2023-12-07T08:05:37;102923.69;;;-5.89;100.00
51781;BME280;37844;57.126;24.288;2023-12-07T08:08:03;102938.38;;;-5.78;100.00
51781;BME280;37844;57.126;24.288;2023-12-07T08:10:28;102941.25;;;-5.89;100.00
51781;BME280;37844;57.126;24.288;2023-12-07T08:12:54;102931.47;;;-5.94;100.00
51781;BME280;37844;57.126;24.288;2023-12-07T08:15:19;102930.69;;;-5.93;100.00
51781;BME280;37844;57.126;24.288;2023-12-07T08:17:47;102933.53;;;-5.76;100.00
51781;BME280;37844;57.126;24.288;2023-12-07T08:20:12;102930.66;;;-5.86;100.00
51781;BME280;37844;57.126;24.288;2023-12-07T08:22:41;102936.97;;;-5.90;100.00
51781;BME280;37844;57.126;24.288;2023-12-07T08:25:07;102940.31;;;-5.75;100.00
51781;BME280;37844;57.126;24.288;2023-12-07T08:27:36;102941.22;;;-5.75;100.00
51781;BME280;37844;57.126;24.288;2023-12-07T08:30:01;102951.59;;;-5.64;100.00
51781;BME280;37844;57.126;24.288;2023-12-07T08:32:27;102947.31;;;-5.72;100.00
51781;BME280;37844;57.126;24.288;2023-12-07T08:34:53;102949.13;;;-5.71;100.00
51781;BME280;37844;57.126;24.288;2023-12-07T08:37:19;102959.88;;;-5.72;100.00
51781;BME280;37844;57.126;24.288;2023-12-07T08:39:45;102953.44;;;-5.78;100.00
51781;BME280;37844;57.126;24.288;2023-12-07T08:42:10;102945.19;;;-5.84;100.00
51781;BME280;37844;57.126;24.288;2023-12-07T08:44:36;102963.81;;;-5.75;100.00
51781;BME280;37844;57.126;24.288;2023-12-07T08:47:02;102947.50;;;-5.71;100.00
51781;BME280;37844;57.126;24.288;2023-12-07T08:49:27;102957.53;;;-5.71;100.00
51781;BME280;37844;57.126;24.288;2023-12-07T08:51:53;102946.22;;;-5.75;100.00
51781;BME280;37844;57.126;24.288;2023-12-07T08:54:19;102949.25;;;-5.63;100.00
51781;BME280;37844;57.126;24.288;2023-12-07T08:56:45;102957.19;;;-5.67;100.00
51781;BME280;37844;57.126;24.288;2023-12-07T08:59:11;102954.44;;;-5.61;100.00
51781;BME280;37844;57.126;24.288;2023-12-07T09:01:36;102942.22;;;-5.58;100.00
51781;BME280;37844;57.126;24.288;2023-12-07T09:04:02;102942.38;;;-5.49;100.00
51781;BME280;37844;57.126;24.288;2023-12-07T09:06:28;102942.94;;;-5.52;100.00
51781;BME280;37844;57.126;24.288;2023-12-07T09:08:54;102937.13;;;-5.44;100.00
51781;BME280;37844;57.126;24.288;2023-12-07T09:11:20;102945.19;;;-5.39;100.00
51781;BME280;37844;57.126;24.288;2023-12-07T09:13:46;102939.78;;;-5.35;100.00
51781;BME280;37844;57.126;24.288;2023-12-07T09:16:12;102949.03;;;-5.50;100.00
51781;BME280;37844;57.126;24.288;2023-12-07T09:18:37;102947.56;;;-5.41;100.00
51781;BME280;37844;57.126;24.288;2023-12-07T09:21:03;102938.69;;;-5.30;100.00
51781;BME280;37844;57.126;24.288;2023-12-07T09:23:28;102941.25;;;-5.37;100.00
51781;BME280;37844;57.126;24.288;2023-12-07T09:25:54;102937.66;;;-5.39;100.00
51781;BME280;37844;57.126;24.288;2023-12-07T09:28:19;102936.41;;;-5.36;100.00
51781;BME280;37844;57.126;24.288;2023-12-07T09:30:45;102934.00;;;-5.27;100.00
51781;BME280;37844;57.126;24.288;2023-12-07T09:33:12;102930.59;;;-5.27;100.00
51781;BME280;37844;57.126;24.288;2023-12-07T09:35:38;102937.66;;;-5.39;100.00
51781;BME280;37844;57.126;24.288;2023-12-07T09:38:04;102932.41;;;-5.26;100.00
51781;BME280;37844;57.126;24.288;2023-12-07T09:40:30;102929.88;;;-5.26;100.00
51781;BME280;37844;57.126;24.288;2023-12-07T09:43:02;102929.84;;;-5.19;100.00
51781;BME280;37844;57.126;24.288;2023-12-07T09:45:27;102927.84;;;-5.15;100.00
51781;BME280;37844;57.126;24.288;2023-12-07T09:47:53;102926.59;;;-5.18;100.00
51781;BME280;37844;57.126;24.288;2023-12-07T09:50:21;102922.81;;;-5.15;100.00
51781;BME280;37844;57.126;24.288;2023-12-07T09:52:52;102924.91;;;-5.11;100.00
51781;BME280;37844;57.126;24.288;2023-12-07T09:55:19;102922.44;;;-5.18;100.00
51781;BME280;37844;57.126;24.288;2023-12-07T09:57:45;102923.19;;;-5.19;100.00
51781;BME280;37844;57.126;24.288;2023-12-07T10:00:14;102917.94;;;-5.13;100.00
51781;BME280;37844;57.126;24.288;2023-12-07T10:02:41;102907.19;;;-5.12;100.00
51781;BME280;37844;57.126;24.288;2023-12-07T10:05:09;102905.16;;;-5.07;100.00
51781;BME280;37844;57.126;24.288;2023-12-07T10:07:44;102903.31;;;-5.01;100.00
51781;BME280;37844;57.126;24.288;2023-12-07T10:10:10;102909.28;;;-5.08;100.00
51781;BME280;37844;57.126;24.288;2023-12-07T10:12:53;102914.50;;;-5.06;100.00
51781;BME280;37844;57.126;24.288;2023-12-07T10:15:21;102911.84;;;-5.15;100.00
51781;BME280;37844;57.126;24.288;2023-12-07T10:17:54;102902.34;;;-5.18;100.00
51781;BME280;37844;57.126;24.288;2023-12-07T10:20:21;102903.50;;;-5.00;100.00
51781;BME280;37844;57.126;24.288;2023-12-07T10:23:01;102898.59;;;-4.91;100.00
51781;BME280;37844;57.126;24.288;2023-12-07T10:25:35;102892.56;;;-5.00;100.00
51781;BME280;37844;57.126;24.288;2023-12-07T10:28:01;102897.66;;;-4.92;100.00
51781;BME280;37844;57.126;24.288;2023-12-07T10:30:32;102892.56;;;-5.00;100.00
51781;BME280;37844;57.126;24.288;2023-12-07T10:32:58;102892.31;;;-4.95;100.00
51781;BME280;37844;57.126;24.288;2023-12-07T10:35:23;102902.38;;;-4.95;100.00
51781;BME280;37844;57.126;24.288;2023-12-07T10:37:49;102907.41;;;-4.95;100.00
51781;BME280;37844;57.126;24.288;2023-12-07T10:40:14;102896.47;;;-4.95;100.00
51781;BME280;37844;57.126;24.288;2023-12-07T10:42:41;102897.47;;;-4.86;100.00
51781;BME280;37844;57.126;24.288;2023-12-07T10:45:08;102896.50;;;-4.79;100.00
51781;BME280;37844;57.126;24.288;2023-12-07T10:47:38;102892.75;;;-4.83;100.00
51781;BME280;37844;57.126;24.288;2023-12-07T10:50:07;102896.91;;;-4.83;100.00
51781;BME280;37844;57.126;24.288;2023-12-07T10:52:45;102905.84;;;-4.78;100.00
51781;BME280;37844;57.126;24.288;2023-12-07T10:55:16;102909.25;;;-4.78;100.00
51781;BME280;37844;57.126;24.288;2023-12-07T10:57:44;102896.34;;;-4.81;100.00
51781;BME280;37844;57.126;24.288;2023-12-07T11:00:10;102909.56;;;-4.75;100.00
51781;BME280;37844;57.126;24.288;2023-12-07T11:02:36;102898.47;;;-4.77;100.00
51781;BME280;37844;57.126;24.288;2023-12-07T11:05:02;102909.25;;;-4.78;100.00
51781;BME280;37844;57.126;24.288;2023-12-07T11:07:41;102898.63;;;-4.75;100.00
51781;BME280;37844;57.126;24.288;2023-12-07T11:10:13;102907.47;;;-4.79;100.00
51781;BME280;37844;57.126;24.288;2023-12-07T11:15:24;102895.47;;;-4.81;100.00
51781;BME280;37844;57.126;24.288;2023-12-07T11:17:55;102891.00;;;-4.84;100.00
51781;BME280;37844;57.126;24.288;2023-12-07T11:23:10;102901.25;;;-4.90;100.00
51781;BME280;37844;57.126;24.288;2023-12-07T11:25:38;102909.31;;;-4.85;100.00
51781;BME280;37844;57.126;24.288;2023-12-07T11:28:05;102897.84;;;-4.90;100.00
51781;BME280;37844;57.126;24.288;2023-12-07T11:30:32;102894.22;;;-4.85;100.00
51781;BME280;37844;57.126;24.288;2023-12-07T11:33:00;102893.97;;;-4.79;100.00
51781;BME280;37844;57.126;24.288;2023-12-07T11:36:10;102907.13;;;-4.82;100.00
51781;BME280;37844;57.126;24.288;2023-12-07T11:41:29;102891.00;;;-4.84;100.00
51781;BME280;37844;57.126;24.288;2023-12-07T11:43:58;102905.84;;;-4.78;100.00
51781;BME280;37844;57.126;24.288;2023-12-07T11:46:23;102901.53;;;-4.79;100.00
51781;BME280;37844;57.126;24.288;2023-12-07T11:48:49;102905.59;;;-4.73;100.00
51781;BME280;37844;57.126;24.288;2023-12-07T11:51:16;102888.41;;;-4.77;100.00
51781;BME280;37844;57.126;24.288;2023-12-07T11:53:41;102887.00;;;-4.82;100.00
51781;BME280;37844;57.126;24.288;2023-12-07T11:56:08;102888.63;;;-4.82;100.00
51781;BME280;37844;57.126;24.288;2023-12-07T11:58:36;102889.88;;;-4.79;100.00
51781;BME280;37844;57.126;24.288;2023-12-07T12:01:03;102887.50;;;-4.77;100.00
51781;BME280;37844;57.126;24.288;2023-12-07T12:03:30;102898.97;;;-4.72;100.00
51781;BME280;37844;57.126;24.288;2023-12-07T12:05:57;102894.97;;;-4.70;100.00
51781;BME280;37844;57.126;24.288;2023-12-07T12:08:23;102907.19;;;-4.66;100.00
51781;BME280;37844;57.126;24.288;2023-12-07T12:10:50;102884.72;;;-4.64;100.00
51781;BME280;37844;57.126;24.288;2023-12-07T12:13:18;102882.50;;;-4.61;100.00
51781;BME280;37844;57.126;24.288;2023-12-07T12:15:45;102874.66;;;-4.64;100.00
51781;BME280;37844;57.126;24.288;2023-12-07T12:18:14;102880.25;;;-4.67;100.00
51781;BME280;37844;57.126;24.288;2023-12-07T12:20:41;102879.00;;;-4.71;100.00
51781;BME280;37844;57.126;24.288;2023-12-07T12:23:08;102888.34;;;-4.70;100.00
51781;BME280;37844;57.126;24.288;2023-12-07T12:25:34;102876.75;;;-4.60;100.00
51781;BME280;37844;57.126;24.288;2023-12-07T12:28:04;102875.78;;;-4.70;100.00
51781;BME280;37844;57.126;24.288;2023-12-07T12:30:30;102874.66;;;-4.64;100.00
51781;BME280;37844;57.126;24.288;2023-12-07T12:32:56;102892.75;;;-4.60;100.00
51781;BME280;37844;57.126;24.288;2023-12-07T12:35:22;102884.34;;;-4.68;100.00
51781;BME280;37844;57.126;24.288;2023-12-07T12:37:49;102877.97;;;-4.57;100.00
51781;BME280;37844;57.126;24.288;2023-12-07T12:40:19;102877.31;;;-4.63;100.00